sensor_id;sensor_type;location;lat;lon;timestamp;P1;durP1;ratioP1;P2;durP2;ratioP2
62030;SDS011;62035;52.094;5.112;2022-09-12T00:00:04;24.58;;;18.83;;
62030;SDS011;62035;52.094;5.112;2022-09-12T00:02:33;26.00;;;19.67;;
62030;SDS011;62035;52.094;5.112;2022-09-12T00:05:01;29.08;;;19.48;;
62030;SDS011;62035;52.094;5.112;2022-09-12T00:07:32;29.77;;;20.30;;
62030;SDS011;62035;52.094;5.112;2022-09-12T00:10:00;28.35;;;18.27;;
62030;SDS011;62035;52.094;5.112;2022-09-12T00:12:27;25.95;;;19.30;;
62030;SDS011;62035;52.094;5.112;2022-09-12T00:14:55;27.42;;;19.30;;
62030;SDS011;62035;52.094;5.112;2022-09-12T00:17:24;34.20;;;20.02;;
62030;SDS011;62035;52.094;5.112;2022-09-12T00:19:51;27.52;;;19.77;;
62030;SDS011;62035;52.094;5.112;2022-09-12T00:22:19;31.90;;;20.83;;
62030;SDS011;62035;52.094;5.112;2022-09-12T00:24:47;30.17;;;20.30;;
62030;SDS011;62035;52.094;5.112;2022-09-12T00:27:14;30.50;;;19.88;;
62030;SDS011;62035;52.094;5.112;2022-09-12T00:29:42;28.48;;;20.73;;
62030;SDS011;62035;52.094;5.112;2022-09-12T00:32:10;31.08;;;19.65;;
62030;SDS011;62035;52.094;5.112;2022-09-12T00:34:38;30.10;;;20.65;;
62030;SDS011;62035;52.094;5.112;2022-09-12T00:37:06;29.73;;;20.27;;
62030;SDS011;62035;52.094;5.112;2022-09-12T00:39:34;26.63;;;19.88;;
62030;SDS011;62035;52.094;5.112;2022-09-12T00:42:01;31.00;;;21.13;;
62030;SDS011;62035;52.094;5.112;2022-09-12T00:44:41;29.90;;;20.80;;
62030;SDS011;62035;52.094;5.112;2022-09-12T00:47:18;32.05;;;21.15;;
62030;SDS011;62035;52.094;5.112;2022-09-12T00:49:53;28.42;;;19.67;;
62030;SDS011;62035;52.094;5.112;2022-09-12T00:52:30;29.60;;;19.92;;
62030;SDS011;62035;52.094;5.112;2022-09-12T00:55:06;31.05;;;21.25;;
62030;SDS011;62035;52.094;5.112;2022-09-12T00:57:39;28.30;;;19.90;;
62030;SDS011;62035;52.094;5.112;2022-09-12T01:00:11;34.17;;;21.17;;
62030;SDS011;62035;52.094;5.112;2022-09-12T01:02:45;35.50;;;22.13;;
62030;SDS011;62035;52.094;5.112;2022-09-12T01:05:19;32.60;;;21.25;;
62030;SDS011;62035;52.094;5.112;2022-09-12T01:07:49;31.33;;;20.40;;
62030;SDS011;62035;52.094;5.112;2022-09-12T01:10:18;34.80;;;22.15;;
62030;SDS011;62035;52.094;5.112;2022-09-12T01:12:46;33.90;;;21.33;;
62030;SDS011;62035;52.094;5.112;2022-09-12T01:15:14;32.75;;;22.50;;
62030;SDS011;62035;52.094;5.112;2022-09-12T01:17:47;33.20;;;21.83;;
62030;SDS011;62035;52.094;5.112;2022-09-12T01:20:37;32.75;;;22.13;;
62030;SDS011;62035;52.094;5.112;2022-09-12T01:27:03;30.27;;;21.40;;
62030;SDS011;62035;52.094;5.112;2022-09-12T01:33:16;34.25;;;22.27;;
62030;SDS011;62035;52.094;5.112;2022-09-12T01:36:14;31.92;;;20.60;;
62030;SDS011;62035;52.094;5.112;2022-09-12T01:39:00;35.42;;;23.85;;
62030;SDS011;62035;52.094;5.112;2022-09-12T01:41:35;33.30;;;21.60;;
62030;SDS011;62035;52.094;5.112;2022-09-12T01:44:18;35.05;;;22.10;;
62030;SDS011;62035;52.094;5.112;2022-09-12T01:47:01;32.83;;;21.75;;
62030;SDS011;62035;52.094;5.112;2022-09-12T01:49:36;31.50;;;21.90;;
62030;SDS011;62035;52.094;5.112;2022-09-12T01:52:12;32.88;;;21.85;;
62030;SDS011;62035;52.094;5.112;2022-09-12T01:54:48;34.72;;;23.17;;
62030;SDS011;62035;52.094;5.112;2022-09-12T01:57:24;34.63;;;23.08;;
62030;SDS011;62035;52.094;5.112;2022-09-12T02:00:03;34.15;;;21.75;;
62030;SDS011;62035;52.094;5.112;2022-09-12T02:02:38;33.90;;;21.45;;
62030;SDS011;62035;52.094;5.112;2022-09-12T02:05:16;36.15;;;22.67;;
62030;SDS011;62035;52.094;5.112;2022-09-12T02:07:55;39.78;;;23.27;;
62030;SDS011;62035;52.094;5.112;2022-09-12T02:10:33;35.88;;;23.65;;
62030;SDS011;62035;52.094;5.112;2022-09-12T02:13:10;32.00;;;22.15;;
62030;SDS011;62035;52.094;5.112;2022-09-12T02:15:47;33.25;;;23.08;;
62030;SDS011;62035;52.094;5.112;2022-09-12T02:18:22;31.92;;;21.08;;
62030;SDS011;62035;52.094;5.112;2022-09-12T02:20:58;33.40;;;22.13;;
62030;SDS011;62035;52.094;5.112;2022-09-12T02:23:31;33.17;;;22.98;;
62030;SDS011;62035;52.094;5.112;2022-09-12T02:26:04;36.28;;;22.88;;
62030;SDS011;62035;52.094;5.112;2022-09-12T02:28:44;32.58;;;21.27;;
62030;SDS011;62035;52.094;5.112;2022-09-12T02:31:14;36.08;;;23.65;;
62030;SDS011;62035;52.094;5.112;2022-09-12T02:33:56;37.28;;;23.45;;
62030;SDS011;62035;52.094;5.112;2022-09-12T02:36:44;39.30;;;24.77;;
62030;SDS011;62035;52.094;5.112;2022-09-12T02:39:21;33.10;;;21.87;;
62030;SDS011;62035;52.094;5.112;2022-09-12T02:41:49;34.85;;;23.98;;
62030;SDS011;62035;52.094;5.112;2022-09-12T02:44:18;36.10;;;23.58;;
62030;SDS011;62035;52.094;5.112;2022-09-12T02:46:47;37.42;;;23.98;;
62030;SDS011;62035;52.094;5.112;2022-09-12T02:49:21;40.10;;;23.23;;
62030;SDS011;62035;52.094;5.112;2022-09-12T02:51:50;33.65;;;22.33;;
62030;SDS011;62035;52.094;5.112;2022-09-12T02:54:18;34.58;;;23.33;;
62030;SDS011;62035;52.094;5.112;2022-09-12T02:56:47;40.75;;;23.67;;
62030;SDS011;62035;52.094;5.112;2022-09-12T02:59:15;34.22;;;23.20;;
62030;SDS011;62035;52.094;5.112;2022-09-12T03:02:02;42.17;;;24.25;;
62030;SDS011;62035;52.094;5.112;2022-09-12T03:07:59;38.88;;;23.58;;
62030;SDS011;62035;52.094;5.112;2022-09-12T03:10:46;38.60;;;23.00;;
62030;SDS011;62035;52.094;5.112;2022-09-12T03:13:37;37.35;;;23.85;;
62030;SDS011;62035;52.094;5.112;2022-09-12T03:16:21;33.03;;;22.17;;
62030;SDS011;62035;52.094;5.112;2022-09-12T03:19:00;34.78;;;22.77;;
62030;SDS011;62035;52.094;5.112;2022-09-12T03:21:39;35.10;;;20.98;;
62030;SDS011;62035;52.094;5.112;2022-09-12T03:24:19;42.55;;;23.15;;
62030;SDS011;62035;52.094;5.112;2022-09-12T03:26:59;37.63;;;23.15;;
62030;SDS011;62035;52.094;5.112;2022-09-12T03:29:34;37.95;;;22.98;;
62030;SDS011;62035;52.094;5.112;2022-09-12T03:32:05;37.40;;;22.92;;
62030;SDS011;62035;52.094;5.112;2022-09-12T03:34:33;38.33;;;24.25;;
62030;SDS011;62035;52.094;5.112;2022-09-12T03:37:02;35.00;;;22.85;;
62030;SDS011;62035;52.094;5.112;2022-09-12T03:39:30;36.28;;;24.08;;
62030;SDS011;62035;52.094;5.112;2022-09-12T03:41:58;36.78;;;23.92;;
62030;SDS011;62035;52.094;5.112;2022-09-12T03:44:26;39.42;;;22.77;;
62030;SDS011;62035;52.094;5.112;2022-09-12T03:46:53;42.75;;;24.33;;
62030;SDS011;62035;52.094;5.112;2022-09-12T03:49:21;40.63;;;24.85;;
62030;SDS011;62035;52.094;5.112;2022-09-12T03:51:48;38.38;;;24.33;;
62030;SDS011;62035;52.094;5.112;2022-09-12T03:54:17;34.97;;;24.42;;
62030;SDS011;62035;52.094;5.112;2022-09-12T03:56:45;37.47;;;23.45;;
62030;SDS011;62035;52.094;5.112;2022-09-12T03:59:12;35.72;;;22.27;;
62030;SDS011;62035;52.094;5.112;2022-09-12T04:01:40;34.70;;;21.63;;
62030;SDS011;62035;52.094;5.112;2022-09-12T04:04:07;34.08;;;22.58;;
62030;SDS011;62035;52.094;5.112;2022-09-12T04:06:35;35.83;;;22.55;;
62030;SDS011;62035;52.094;5.112;2022-09-12T04:09:03;36.33;;;21.35;;
62030;SDS011;62035;52.094;5.112;2022-09-12T04:11:33;35.67;;;22.67;;
62030;SDS011;62035;52.094;5.112;2022-09-12T04:14:01;34.20;;;22.58;;
62030;SDS011;62035;52.094;5.112;2022-09-12T04:16:29;31.58;;;21.60;;
62030;SDS011;62035;52.094;5.112;2022-09-12T04:18:57;38.58;;;22.80;;
62030;SDS011;62035;52.094;5.112;2022-09-12T04:21:24;35.78;;;22.27;;
62030;SDS011;62035;52.094;5.112;2022-09-12T04:23:52;39.10;;;22.75;;
62030;SDS011;62035;52.094;5.112;2022-09-12T04:26:20;37.00;;;23.05;;
62030;SDS011;62035;52.094;5.112;2022-09-12T04:28:51;36.83;;;22.60;;
62030;SDS011;62035;52.094;5.112;2022-09-12T04:31:22;37.08;;;22.00;;
62030;SDS011;62035;52.094;5.112;2022-09-12T04:33:54;35.13;;;22.88;;
62030;SDS011;62035;52.094;5.112;2022-09-12T04:36:24;33.08;;;22.20;;
62030;SDS011;62035;52.094;5.112;2022-09-12T04:38:52;33.45;;;20.50;;
62030;SDS011;62035;52.094;5.112;2022-09-12T04:41:22;33.63;;;22.95;;
62030;SDS011;62035;52.094;5.112;2022-09-12T04:43:54;32.90;;;21.55;;
62030;SDS011;62035;52.094;5.112;2022-09-12T04:46:26;34.42;;;22.70;;
62030;SDS011;62035;52.094;5.112;2022-09-12T04:48:56;32.72;;;21.50;;
62030;SDS011;62035;52.094;5.112;2022-09-12T04:51:25;36.15;;;21.55;;
62030;SDS011;62035;52.094;5.112;2022-09-12T04:53:57;30.67;;;20.73;;
62030;SDS011;62035;52.094;5.112;2022-09-12T04:56:26;34.20;;;21.90;;
62030;SDS011;62035;52.094;5.112;2022-09-12T04:58:58;37.00;;;22.90;;
62030;SDS011;62035;52.094;5.112;2022-09-12T05:01:27;36.38;;;22.83;;
62030;SDS011;62035;52.094;5.112;2022-09-12T05:03:56;37.17;;;21.90;;
62030;SDS011;62035;52.094;5.112;2022-09-12T05:06:25;32.60;;;21.08;;
62030;SDS011;62035;52.094;5.112;2022-09-12T05:08:56;34.07;;;21.40;;
62030;SDS011;62035;52.094;5.112;2022-09-12T05:11:25;28.65;;;19.38;;
62030;SDS011;62035;52.094;5.112;2022-09-12T05:13:57;29.73;;;19.05;;
62030;SDS011;62035;52.094;5.112;2022-09-12T05:16:26;32.65;;;21.48;;
62030;SDS011;62035;52.094;5.112;2022-09-12T05:18:56;33.72;;;21.35;;
62030;SDS011;62035;52.094;5.112;2022-09-12T05:21:25;31.60;;;21.25;;
62030;SDS011;62035;52.094;5.112;2022-09-12T05:23:54;33.28;;;20.77;;
62030;SDS011;62035;52.094;5.112;2022-09-12T05:26:24;34.60;;;22.55;;
62030;SDS011;62035;52.094;5.112;2022-09-12T05:28:52;32.13;;;20.67;;
62030;SDS011;62035;52.094;5.112;2022-09-12T05:31:22;37.35;;;21.85;;
62030;SDS011;62035;52.094;5.112;2022-09-12T05:33:52;35.55;;;21.98;;
62030;SDS011;62035;52.094;5.112;2022-09-12T05:36:22;34.22;;;21.92;;
62030;SDS011;62035;52.094;5.112;2022-09-12T05:38:52;31.35;;;19.33;;
62030;SDS011;62035;52.094;5.112;2022-09-12T05:41:21;31.70;;;20.35;;
62030;SDS011;62035;52.094;5.112;2022-09-12T05:43:50;35.35;;;22.38;;
62030;SDS011;62035;52.094;5.112;2022-09-12T05:46:22;32.65;;;20.42;;
62030;SDS011;62035;52.094;5.112;2022-09-12T05:48:52;38.72;;;21.00;;
62030;SDS011;62035;52.094;5.112;2022-09-12T05:51:20;35.35;;;21.58;;
62030;SDS011;62035;52.094;5.112;2022-09-12T05:53:51;35.88;;;21.98;;
62030;SDS011;62035;52.094;5.112;2022-09-12T05:56:22;34.40;;;21.35;;
62030;SDS011;62035;52.094;5.112;2022-09-12T05:58:52;34.00;;;21.77;;
62030;SDS011;62035;52.094;5.112;2022-09-12T06:01:23;36.88;;;22.05;;
62030;SDS011;62035;52.094;5.112;2022-09-12T06:03:53;34.10;;;22.00;;
62030;SDS011;62035;52.094;5.112;2022-09-12T06:06:26;36.28;;;22.48;;
62030;SDS011;62035;52.094;5.112;2022-09-12T06:08:56;38.15;;;21.17;;
62030;SDS011;62035;52.094;5.112;2022-09-12T06:11:27;35.00;;;20.53;;
62030;SDS011;62035;52.094;5.112;2022-09-12T06:13:58;36.65;;;19.88;;
62030;SDS011;62035;52.094;5.112;2022-09-12T06:16:28;33.50;;;21.58;;
62030;SDS011;62035;52.094;5.112;2022-09-12T06:18:59;36.28;;;23.08;;
62030;SDS011;62035;52.094;5.112;2022-09-12T06:21:29;34.65;;;21.52;;
62030;SDS011;62035;52.094;5.112;2022-09-12T06:23:57;34.30;;;21.65;;
62030;SDS011;62035;52.094;5.112;2022-09-12T06:26:25;37.95;;;20.88;;
62030;SDS011;62035;52.094;5.112;2022-09-12T06:28:55;37.13;;;22.02;;
62030;SDS011;62035;52.094;5.112;2022-09-12T06:31:25;34.20;;;22.10;;
62030;SDS011;62035;52.094;5.112;2022-09-12T06:33:58;37.78;;;22.70;;
62030;SDS011;62035;52.094;5.112;2022-09-12T06:36:28;35.78;;;22.17;;
62030;SDS011;62035;52.094;5.112;2022-09-12T06:38:59;36.10;;;22.98;;
62030;SDS011;62035;52.094;5.112;2022-09-12T06:41:29;34.63;;;20.08;;
62030;SDS011;62035;52.094;5.112;2022-09-12T06:43:58;36.85;;;22.80;;
62030;SDS011;62035;52.094;5.112;2022-09-12T06:46:29;38.85;;;23.60;;
62030;SDS011;62035;52.094;5.112;2022-09-12T06:48:57;34.40;;;22.55;;
62030;SDS011;62035;52.094;5.112;2022-09-12T06:51:27;38.85;;;23.25;;
62030;SDS011;62035;52.094;5.112;2022-09-12T06:53:55;42.08;;;23.75;;
62030;SDS011;62035;52.094;5.112;2022-09-12T06:56:24;38.55;;;22.35;;
62030;SDS011;62035;52.094;5.112;2022-09-12T06:58:54;39.42;;;22.33;;
62030;SDS011;62035;52.094;5.112;2022-09-12T07:01:24;40.22;;;23.15;;
62030;SDS011;62035;52.094;5.112;2022-09-12T07:03:56;43.70;;;24.65;;
62030;SDS011;62035;52.094;5.112;2022-09-12T07:06:27;38.15;;;22.98;;
62030;SDS011;62035;52.094;5.112;2022-09-12T07:09:02;38.58;;;23.50;;
62030;SDS011;62035;52.094;5.112;2022-09-12T07:11:33;36.22;;;21.70;;
62030;SDS011;62035;52.094;5.112;2022-09-12T07:14:04;39.78;;;23.35;;
62030;SDS011;62035;52.094;5.112;2022-09-12T07:16:34;34.17;;;21.27;;
62030;SDS011;62035;52.094;5.112;2022-09-12T07:19:04;35.88;;;22.17;;
62030;SDS011;62035;52.094;5.112;2022-09-12T07:21:33;34.50;;;20.33;;
62030;SDS011;62035;52.094;5.112;2022-09-12T07:24:04;32.17;;;20.47;;
62030;SDS011;62035;52.094;5.112;2022-09-12T07:26:34;35.13;;;21.30;;
62030;SDS011;62035;52.094;5.112;2022-09-12T07:29:02;35.22;;;21.02;;
62030;SDS011;62035;52.094;5.112;2022-09-12T07:31:30;29.05;;;20.13;;
62030;SDS011;62035;52.094;5.112;2022-09-12T07:33:57;37.55;;;20.77;;
62030;SDS011;62035;52.094;5.112;2022-09-12T07:36:26;32.33;;;21.10;;
62030;SDS011;62035;52.094;5.112;2022-09-12T07:38:54;31.48;;;19.85;;
62030;SDS011;62035;52.094;5.112;2022-09-12T07:41:24;30.60;;;20.90;;
62030;SDS011;62035;52.094;5.112;2022-09-12T07:43:54;35.72;;;20.10;;
62030;SDS011;62035;52.094;5.112;2022-09-12T07:46:24;34.33;;;18.85;;
62030;SDS011;62035;52.094;5.112;2022-09-12T07:48:55;36.75;;;20.33;;
62030;SDS011;62035;52.094;5.112;2022-09-12T07:51:25;34.10;;;19.67;;
62030;SDS011;62035;52.094;5.112;2022-09-12T07:53:56;35.78;;;19.55;;
62030;SDS011;62035;52.094;5.112;2022-09-12T07:56:25;28.65;;;18.90;;
62030;SDS011;62035;52.094;5.112;2022-09-12T07:58:54;29.38;;;18.17;;
62030;SDS011;62035;52.094;5.112;2022-09-12T08:01:22;26.52;;;17.27;;
62030;SDS011;62035;52.094;5.112;2022-09-12T08:03:52;29.13;;;18.63;;
62030;SDS011;62035;52.094;5.112;2022-09-12T08:06:21;28.52;;;18.85;;
62030;SDS011;62035;52.094;5.112;2022-09-12T08:08:52;28.33;;;17.23;;
62030;SDS011;62035;52.094;5.112;2022-09-12T08:11:22;25.25;;;17.23;;
62030;SDS011;62035;52.094;5.112;2022-09-12T08:13:52;25.85;;;17.85;;
62030;SDS011;62035;52.094;5.112;2022-09-12T08:16:23;23.55;;;16.08;;
62030;SDS011;62035;52.094;5.112;2022-09-12T08:18:53;27.42;;;15.82;;
62030;SDS011;62035;52.094;5.112;2022-09-12T08:21:22;26.95;;;17.00;;
62030;SDS011;62035;52.094;5.112;2022-09-12T08:23:53;24.95;;;15.80;;
62030;SDS011;62035;52.094;5.112;2022-09-12T08:26:23;26.48;;;16.98;;
62030;SDS011;62035;52.094;5.112;2022-09-12T08:28:52;27.85;;;16.60;;
62030;SDS011;62035;52.094;5.112;2022-09-12T08:31:21;23.25;;;15.60;;
62030;SDS011;62035;52.094;5.112;2022-09-12T08:36:22;23.92;;;15.40;;
62030;SDS011;62035;52.094;5.112;2022-09-12T08:38:54;24.73;;;15.43;;
62030;SDS011;62035;52.094;5.112;2022-09-12T08:41:25;24.25;;;15.85;;
62030;SDS011;62035;52.094;5.112;2022-09-12T08:44:04;24.27;;;15.05;;
62030;SDS011;62035;52.094;5.112;2022-09-12T08:50:04;24.35;;;15.45;;
62030;SDS011;62035;52.094;5.112;2022-09-12T08:52:42;25.75;;;14.50;;
62030;SDS011;62035;52.094;5.112;2022-09-12T08:55:26;24.15;;;15.95;;
62030;SDS011;62035;52.094;5.112;2022-09-12T08:57:59;27.00;;;15.15;;
62030;SDS011;62035;52.094;5.112;2022-09-12T09:00:39;22.23;;;15.02;;
62030;SDS011;62035;52.094;5.112;2022-09-12T09:03:19;26.50;;;15.48;;
62030;SDS011;62035;52.094;5.112;2022-09-12T09:06:21;22.08;;;15.57;;
62030;SDS011;62035;52.094;5.112;2022-09-12T09:09:14;23.92;;;16.13;;
62030;SDS011;62035;52.094;5.112;2022-09-12T09:11:56;21.02;;;15.70;;
62030;SDS011;62035;52.094;5.112;2022-09-12T09:14:40;26.38;;;16.90;;
62030;SDS011;62035;52.094;5.112;2022-09-12T09:17:25;24.60;;;15.55;;
62030;SDS011;62035;52.094;5.112;2022-09-12T09:20:02;24.27;;;14.73;;
62030;SDS011;62035;52.094;5.112;2022-09-12T09:22:50;18.92;;;14.32;;
62030;SDS011;62035;52.094;5.112;2022-09-12T09:25:23;19.85;;;14.23;;
62030;SDS011;62035;52.094;5.112;2022-09-12T09:28:04;19.45;;;12.68;;
62030;SDS011;62035;52.094;5.112;2022-09-12T09:30:41;21.88;;;14.45;;
62030;SDS011;62035;52.094;5.112;2022-09-12T09:33:19;27.08;;;13.60;;
62030;SDS011;62035;52.094;5.112;2022-09-12T09:35:52;20.83;;;12.43;;
62030;SDS011;62035;52.094;5.112;2022-09-12T09:38:32;17.05;;;11.65;;
62030;SDS011;62035;52.094;5.112;2022-09-12T09:41:17;19.80;;;12.65;;
62030;SDS011;62035;52.094;5.112;2022-09-12T09:43:59;21.58;;;11.70;;
62030;SDS011;62035;52.094;5.112;2022-09-12T09:46:28;17.98;;;10.52;;
62030;SDS011;62035;52.094;5.112;2022-09-12T09:48:56;17.33;;;10.77;;
62030;SDS011;62035;52.094;5.112;2022-09-12T09:51:33;19.38;;;10.30;;
62030;SDS011;62035;52.094;5.112;2022-09-12T09:54:04;15.43;;;10.27;;
62030;SDS011;62035;52.094;5.112;2022-09-12T09:56:44;14.95;;;9.65;;
62030;SDS011;62035;52.094;5.112;2022-09-12T09:59:14;15.35;;;9.75;;
62030;SDS011;62035;52.094;5.112;2022-09-12T10:01:46;16.38;;;10.25;;
62030;SDS011;62035;52.094;5.112;2022-09-12T10:04:18;14.75;;;9.95;;
62030;SDS011;62035;52.094;5.112;2022-09-12T10:06:49;16.20;;;9.27;;
62030;SDS011;62035;52.094;5.112;2022-09-12T10:09:20;20.55;;;9.40;;
62030;SDS011;62035;52.094;5.112;2022-09-12T10:11:52;13.98;;;9.02;;
62030;SDS011;62035;52.094;5.112;2022-09-12T10:14:27;20.55;;;9.35;;
62030;SDS011;62035;52.094;5.112;2022-09-12T10:19:54;12.13;;;8.82;;
62030;SDS011;62035;52.094;5.112;2022-09-12T10:22:23;13.63;;;9.77;;
62030;SDS011;62035;52.094;5.112;2022-09-12T10:24:56;13.75;;;9.02;;
62030;SDS011;62035;52.094;5.112;2022-09-12T10:27:27;13.00;;;9.45;;
62030;SDS011;62035;52.094;5.112;2022-09-12T10:30:01;17.33;;;7.70;;
62030;SDS011;62035;52.094;5.112;2022-09-12T10:32:33;14.15;;;8.80;;
62030;SDS011;62035;52.094;5.112;2022-09-12T10:35:06;11.57;;;8.00;;
62030;SDS011;62035;52.094;5.112;2022-09-12T10:37:51;11.10;;;6.95;;
62030;SDS011;62035;52.094;5.112;2022-09-12T10:40:25;10.55;;;7.28;;
62030;SDS011;62035;52.094;5.112;2022-09-12T10:42:58;8.75;;;6.55;;
62030;SDS011;62035;52.094;5.112;2022-09-12T10:45:29;11.18;;;7.10;;
62030;SDS011;62035;52.094;5.112;2022-09-12T10:48:00;10.57;;;6.72;;
62030;SDS011;62035;52.094;5.112;2022-09-12T10:50:49;12.40;;;6.35;;
62030;SDS011;62035;52.094;5.112;2022-09-12T10:53:18;9.13;;;6.53;;
62030;SDS011;62035;52.094;5.112;2022-09-12T11:01:45;7.88;;;5.82;;
62030;SDS011;62035;52.094;5.112;2022-09-12T11:04:23;8.45;;;5.75;;
62030;SDS011;62035;52.094;5.112;2022-09-12T11:07:06;9.27;;;5.57;;
62030;SDS011;62035;52.094;5.112;2022-09-12T11:10:00;11.77;;;5.90;;
62030;SDS011;62035;52.094;5.112;2022-09-12T11:12:45;12.48;;;7.22;;
62030;SDS011;62035;52.094;5.112;2022-09-12T11:15:31;10.17;;;5.87;;
62030;SDS011;62035;52.094;5.112;2022-09-12T11:18:28;7.78;;;5.20;;
62030;SDS011;62035;52.094;5.112;2022-09-12T11:21:18;9.32;;;5.75;;
62030;SDS011;62035;52.094;5.112;2022-09-12T11:24:12;10.52;;;5.20;;
62030;SDS011;62035;52.094;5.112;2022-09-12T11:27:04;10.50;;;5.80;;
62030;SDS011;62035;52.094;5.112;2022-09-12T11:30:06;6.35;;;4.63;;
62030;SDS011;62035;52.094;5.112;2022-09-12T11:32:44;8.43;;;5.90;;
62030;SDS011;62035;52.094;5.112;2022-09-12T11:35:32;9.20;;;4.78;;
62030;SDS011;62035;52.094;5.112;2022-09-12T11:41:14;10.85;;;5.32;;
62030;SDS011;62035;52.094;5.112;2022-09-12T11:43:53;5.97;;;3.90;;
62030;SDS011;62035;52.094;5.112;2022-09-12T11:46:31;7.47;;;4.20;;
62030;SDS011;62035;52.094;5.112;2022-09-12T11:49:04;5.43;;;4.18;;
62030;SDS011;62035;52.094;5.112;2022-09-12T11:51:47;8.27;;;4.43;;
62030;SDS011;62035;52.094;5.112;2022-09-12T11:54:23;7.53;;;4.40;;
62030;SDS011;62035;52.094;5.112;2022-09-12T11:57:00;9.55;;;4.60;;
62030;SDS011;62035;52.094;5.112;2022-09-12T11:59:42;6.40;;;4.50;;
62030;SDS011;62035;52.094;5.112;2022-09-12T12:02:18;6.75;;;4.70;;
62030;SDS011;62035;52.094;5.112;2022-09-12T12:05:01;8.27;;;5.07;;
62030;SDS011;62035;52.094;5.112;2022-09-12T12:07:49;8.48;;;4.47;;
62030;SDS011;62035;52.094;5.112;2022-09-12T12:10:21;7.47;;;4.30;;
62030;SDS011;62035;52.094;5.112;2022-09-12T12:12:53;8.88;;;4.30;;
62030;SDS011;62035;52.094;5.112;2022-09-12T12:15:24;6.15;;;4.30;;
62030;SDS011;62035;52.094;5.112;2022-09-12T12:18:00;9.70;;;5.05;;
62030;SDS011;62035;52.094;5.112;2022-09-12T12:20:33;10.27;;;4.90;;
62030;SDS011;62035;52.094;5.112;2022-09-12T12:23:03;8.30;;;3.83;;
62030;SDS011;62035;52.094;5.112;2022-09-12T12:25:37;6.53;;;3.58;;
62030;SDS011;62035;52.094;5.112;2022-09-12T12:31:25;5.22;;;3.28;;
62030;SDS011;62035;52.094;5.112;2022-09-12T12:33:54;5.43;;;3.58;;
62030;SDS011;62035;52.094;5.112;2022-09-12T12:36:47;7.32;;;4.22;;
62030;SDS011;62035;52.094;5.112;2022-09-12T12:46:07;8.25;;;3.83;;
62030;SDS011;62035;52.094;5.112;2022-09-12T12:51:44;9.02;;;3.47;;
62030;SDS011;62035;52.094;5.112;2022-09-12T12:54:27;6.53;;;3.97;;
62030;SDS011;62035;52.094;5.112;2022-09-12T12:57:22;7.55;;;3.80;;
62030;SDS011;62035;52.094;5.112;2022-09-12T13:00:27;4.97;;;3.70;;
62030;SDS011;62035;52.094;5.112;2022-09-12T13:03:00;7.13;;;4.05;;
62030;SDS011;62035;52.094;5.112;2022-09-12T13:05:44;6.45;;;3.40;;
62030;SDS011;62035;52.094;5.112;2022-09-12T13:08:25;6.20;;;3.58;;
62030;SDS011;62035;52.094;5.112;2022-09-12T13:10:58;6.50;;;2.97;;
62030;SDS011;62035;52.094;5.112;2022-09-12T13:13:35;6.30;;;3.15;;
62030;SDS011;62035;52.094;5.112;2022-09-12T13:16:27;4.90;;;3.05;;
62030;SDS011;62035;52.094;5.112;2022-09-12T13:19:01;4.85;;;3.33;;
62030;SDS011;62035;52.094;5.112;2022-09-12T13:21:33;5.82;;;2.90;;
62030;SDS011;62035;52.094;5.112;2022-09-12T13:24:02;4.90;;;3.10;;
62030;SDS011;62035;52.094;5.112;2022-09-12T13:26:39;6.20;;;2.90;;
62030;SDS011;62035;52.094;5.112;2022-09-12T13:31:42;4.28;;;2.28;;
62030;SDS011;62035;52.094;5.112;2022-09-12T13:34:14;4.70;;;2.67;;
62030;SDS011;62035;52.094;5.112;2022-09-12T13:36:50;4.28;;;2.72;;
62030;SDS011;62035;52.094;5.112;2022-09-12T13:39:45;4.70;;;2.88;;
62030;SDS011;62035;52.094;5.112;2022-09-12T13:42:21;6.07;;;2.77;;
62030;SDS011;62035;52.094;5.112;2022-09-12T13:45:08;6.95;;;2.70;;
62030;SDS011;62035;52.094;5.112;2022-09-12T13:47:45;4.03;;;2.53;;
62030;SDS011;62035;52.094;5.112;2022-09-12T13:50:18;4.30;;;3.03;;
62030;SDS011;62035;52.094;5.112;2022-09-12T13:52:50;7.05;;;3.53;;
62030;SDS011;62035;52.094;5.112;2022-09-12T13:55:26;4.93;;;3.08;;
62030;SDS011;62035;52.094;5.112;2022-09-12T13:57:58;4.47;;;2.67;;
62030;SDS011;62035;52.094;5.112;2022-09-12T14:00:30;5.35;;;2.92;;
62030;SDS011;62035;52.094;5.112;2022-09-12T14:03:00;5.32;;;2.50;;
62030;SDS011;62035;52.094;5.112;2022-09-12T14:05:46;3.95;;;2.42;;
62030;SDS011;62035;52.094;5.112;2022-09-12T14:08:22;4.28;;;2.75;;
62030;SDS011;62035;52.094;5.112;2022-09-12T14:10:50;5.22;;;2.92;;
62030;SDS011;62035;52.094;5.112;2022-09-12T14:13:19;9.43;;;2.85;;
62030;SDS011;62035;52.094;5.112;2022-09-12T14:15:52;5.65;;;2.70;;
62030;SDS011;62035;52.094;5.112;2022-09-12T14:18:23;7.53;;;2.67;;
62030;SDS011;62035;52.094;5.112;2022-09-12T14:20:53;5.30;;;3.35;;
62030;SDS011;62035;52.094;5.112;2022-09-12T14:23:26;4.20;;;3.00;;
62030;SDS011;62035;52.094;5.112;2022-09-12T14:25:57;4.47;;;2.63;;
62030;SDS011;62035;52.094;5.112;2022-09-12T14:28:29;5.13;;;2.70;;
62030;SDS011;62035;52.094;5.112;2022-09-12T14:31:03;6.18;;;3.05;;
62030;SDS011;62035;52.094;5.112;2022-09-12T14:33:39;4.45;;;2.60;;
62030;SDS011;62035;52.094;5.112;2022-09-12T14:36:18;7.05;;;2.60;;
62030;SDS011;62035;52.094;5.112;2022-09-12T14:38:51;5.15;;;2.50;;
62030;SDS011;62035;52.094;5.112;2022-09-12T14:41:26;3.67;;;2.50;;
62030;SDS011;62035;52.094;5.112;2022-09-12T14:43:58;13.93;;;3.15;;
62030;SDS011;62035;52.094;5.112;2022-09-12T14:46:32;5.32;;;2.42;;
62030;SDS011;62035;52.094;5.112;2022-09-12T14:49:05;6.78;;;2.72;;
62030;SDS011;62035;52.094;5.112;2022-09-12T14:51:39;4.15;;;2.55;;
62030;SDS011;62035;52.094;5.112;2022-09-12T14:54:36;4.32;;;2.30;;
62030;SDS011;62035;52.094;5.112;2022-09-12T15:00:04;5.45;;;3.17;;
62030;SDS011;62035;52.094;5.112;2022-09-12T15:02:48;3.97;;;2.60;;
62030;SDS011;62035;52.094;5.112;2022-09-12T15:07:56;5.75;;;3.53;;
62030;SDS011;62035;52.094;5.112;2022-09-12T15:10:27;5.55;;;2.58;;
62030;SDS011;62035;52.094;5.112;2022-09-12T15:13:14;3.05;;;2.15;;
62030;SDS011;62035;52.094;5.112;2022-09-12T15:15:45;4.28;;;2.50;;
62030;SDS011;62035;52.094;5.112;2022-09-12T15:18:17;4.82;;;2.45;;
62030;SDS011;62035;52.094;5.112;2022-09-12T15:20:46;5.00;;;2.17;;
62030;SDS011;62035;52.094;5.112;2022-09-12T15:23:18;4.60;;;2.00;;
62030;SDS011;62035;52.094;5.112;2022-09-12T15:25:57;5.63;;;2.55;;
62030;SDS011;62035;52.094;5.112;2022-09-12T15:28:26;4.43;;;2.40;;
62030;SDS011;62035;52.094;5.112;2022-09-12T15:30:55;5.90;;;3.08;;
62030;SDS011;62035;52.094;5.112;2022-09-12T15:33:29;6.80;;;2.70;;
62030;SDS011;62035;52.094;5.112;2022-09-12T15:35:56;7.00;;;4.57;;
62030;SDS011;62035;52.094;5.112;2022-09-12T15:38:24;5.20;;;2.58;;
62030;SDS011;62035;52.094;5.112;2022-09-12T15:40:51;3.53;;;2.65;;
62030;SDS011;62035;52.094;5.112;2022-09-12T15:43:20;7.35;;;3.45;;
62030;SDS011;62035;52.094;5.112;2022-09-12T15:45:50;5.65;;;2.72;;
62030;SDS011;62035;52.094;5.112;2022-09-12T15:48:18;5.13;;;2.78;;
62030;SDS011;62035;52.094;5.112;2022-09-12T15:50:48;12.73;;;7.85;;
62030;SDS011;62035;52.094;5.112;2022-09-12T15:53:15;5.18;;;2.95;;
62030;SDS011;62035;52.094;5.112;2022-09-12T15:55:43;6.00;;;2.63;;
62030;SDS011;62035;52.094;5.112;2022-09-12T15:58:11;8.07;;;2.50;;